createdAt,value
2022-11-27T00:02:54.698Z,1008.9
2022-11-27T00:08:38.011Z,1008.7
2022-11-27T00:14:21.302Z,1008.52
2022-11-27T00:20:04.737Z,1008.5
2022-11-27T00:25:53.919Z,1008.41
2022-11-27T00:31:37.813Z,1008.3
2022-11-27T00:37:21.312Z,1007.97
2022-11-27T00:43:04.446Z,1007.82
2022-11-27T00:48:47.684Z,1007.87
2022-11-27T00:54:30.594Z,1007.92
2022-11-27T01:00:14.927Z,1007.91
2022-11-27T01:05:58.001Z,1007.68
2022-11-27T01:11:41.163Z,1007.52
2022-11-27T01:17:24.515Z,1007.66
2022-11-27T01:23:07.572Z,1007.55
2022-11-27T01:28:52.157Z,1007.51
2022-11-27T01:34:35.326Z,1007.42
2022-11-27T01:40:18.729Z,1007.26
2022-11-27T01:46:01.855Z,1007.24
2022-11-27T01:51:46.229Z,1007.15
2022-11-27T01:57:31.595Z,1007.13
2022-11-27T02:03:14.785Z,1007.1
2022-11-27T02:08:57.969Z,1007.03
2022-11-27T02:14:45.946Z,1006.85
2022-11-27T02:20:35.936Z,1006.91
2022-11-27T02:26:35.551Z,1006.89
2022-11-27T02:32:22.259Z,1006.74
2022-11-27T02:38:08.622Z,1006.52
2022-11-27T02:43:53.005Z,1006.6
2022-11-27T02:49:37.905Z,1006.56
2022-11-27T02:55:22.551Z,1006.52
2022-11-27T03:01:06.614Z,1006.38
2022-11-27T03:06:51.595Z,1006.1
2022-11-27T03:12:34.770Z,1006.21
2022-11-27T03:18:22.272Z,1006.35
2022-11-27T03:24:07.509Z,1006.67
2022-11-27T03:29:52.424Z,1006.54
2022-11-27T03:35:35.463Z,1006.32
2022-11-27T03:41:22.725Z,1006.48
2022-11-27T03:47:11.556Z,1006.18
2022-11-27T03:53:01.305Z,1006.41
2022-11-27T03:58:48.227Z,1006.38
2022-11-27T04:04:32.203Z,1006.52
2022-11-27T04:10:16.473Z,1006.31
2022-11-27T04:16:00.479Z,1006.32
2022-11-27T04:21:44.774Z,1006.51
2022-11-27T04:27:27.907Z,1006.22
2022-11-27T04:33:12.123Z,1006.27
2022-11-27T04:38:54.964Z,1006.14
2022-11-27T04:44:38.035Z,1005.99
2022-11-27T04:50:23.065Z,1005.93
2022-11-27T04:56:06.334Z,1005.99
2022-11-27T05:01:50.680Z,1005.94
2022-11-27T05:07:33.682Z,1005.92
2022-11-27T05:13:16.919Z,1005.95
2022-11-27T05:19:00.198Z,1005.94
2022-11-27T05:24:43.591Z,1005.91
2022-11-27T05:30:27.661Z,1005.85
2022-11-27T05:36:10.942Z,1005.55
2022-11-27T05:41:53.627Z,1005.34
2022-11-27T05:47:37.608Z,1005.21
2022-11-27T05:53:20.456Z,1005.16
2022-11-27T05:59:03.439Z,1005
2022-11-27T06:04:46.381Z,1004.94
2022-11-27T06:10:29.311Z,1004.99
2022-11-27T06:16:13.512Z,1004.87
2022-11-27T06:21:56.611Z,1004.84
2022-11-27T06:27:39.458Z,1004.86
2022-11-27T06:33:22.325Z,1004.69
2022-11-27T06:39:06.273Z,1004.65
2022-11-27T06:44:51.098Z,1004.64
2022-11-27T06:50:34.245Z,1004.57
2022-11-27T06:56:18.413Z,1004.53
2022-11-27T07:02:01.762Z,1004.45
2022-11-27T07:07:45.117Z,1004.54
2022-11-27T07:13:29.153Z,1004.49
2022-11-27T07:19:12.343Z,1004.56
2022-11-27T07:24:55.272Z,1004.56
2022-11-27T07:30:38.390Z,1004.57
2022-11-27T07:36:23.807Z,1004.45
2022-11-27T07:42:36.724Z,1004.44
2022-11-27T07:48:10.907Z,1004.42
2022-11-27T07:53:53.953Z,1004.42
2022-11-27T07:59:37.119Z,1004.34
2022-11-27T08:05:27.131Z,1004.36
2022-11-27T08:11:15.030Z,1004.36
2022-11-27T08:16:58.109Z,1004.29
2022-11-27T08:22:42.039Z,1004.29
2022-11-27T08:28:24.909Z,1004.18
2022-11-27T08:34:07.721Z,1004.17
2022-11-27T08:39:50.701Z,1004.15
2022-11-27T08:45:33.817Z,1004.04
2022-11-27T08:51:17.017Z,1003.9
2022-11-27T08:57:00.091Z,1004.05
2022-11-27T09:02:43.121Z,1004.08
2022-11-27T09:08:26.175Z,1003.92
2022-11-27T09:14:09.512Z,1003.87
2022-11-27T09:19:52.858Z,1003.8
2022-11-27T09:25:38.760Z,1003.68
2022-11-27T09:31:22.334Z,1003.65
2022-11-27T09:37:07.908Z,1003.66
2022-11-27T09:42:54.677Z,1003.55
2022-11-27T09:48:40.417Z,1003.5
2022-11-27T09:54:24.665Z,1003.45
2022-11-27T10:00:12.155Z,1003.35
2022-11-27T10:06:00.181Z,1003.21
2022-11-27T10:11:48.735Z,1003.19
2022-11-27T10:17:35.440Z,1003.02
2022-11-27T10:23:23.840Z,1002.97
2022-11-27T10:29:11.970Z,1002.94
2022-11-27T10:34:57.223Z,1002.85
2022-11-27T10:40:44.568Z,1002.76
2022-11-27T10:46:28.904Z,1002.71
2022-11-27T10:52:15.051Z,1002.68
2022-11-27T10:58:03.926Z,1002.54
2022-11-27T11:03:47.391Z,1002.36
2022-11-27T11:09:31.347Z,1002.2
2022-11-27T11:15:15.334Z,1002.01
2022-11-27T11:20:59.094Z,1001.85
2022-11-27T11:26:45.203Z,1001.61
2022-11-27T11:32:30.024Z,1001.51
2022-11-27T11:38:18.822Z,1001.35
2022-11-27T11:44:02.503Z,1001.56
2022-11-27T11:49:46.838Z,1001.43
2022-11-27T11:55:35.122Z,1001.61
2022-11-27T12:01:28.253Z,1001.56
2022-11-27T12:07:16.481Z,1001.53
2022-11-27T12:13:04.081Z,1001.43
2022-11-27T12:18:54.281Z,1001.35
2022-11-27T12:24:44.145Z,1001.31
2022-11-27T12:30:31.678Z,1001.13
2022-11-27T12:36:20.434Z,1000.97
2022-11-27T12:42:14.881Z,1000.78
2022-11-27T12:48:07.829Z,1000.75
2022-11-27T12:53:53.103Z,1000.69
2022-11-27T12:59:39.733Z,1000.78
2022-11-27T13:05:24.741Z,1000.62
2022-11-27T13:11:10.696Z,1000.68
2022-11-27T13:16:55.741Z,1000.63
2022-11-27T13:22:38.925Z,1000.49
2022-11-27T13:28:26.021Z,1000.37
2022-11-27T13:34:10.777Z,1000.21
2022-11-27T13:39:59.127Z,1000.12
2022-11-27T13:45:42.490Z,1000.18
2022-11-27T13:51:30.379Z,1000.12
2022-11-27T13:57:17.944Z,1000.01
2022-11-27T14:03:01.461Z,1000.02
2022-11-27T14:08:49.496Z,999.81
2022-11-27T14:14:32.537Z,999.62
2022-11-27T14:20:30.684Z,999.57
2022-11-27T14:26:22.658Z,999.52
2022-11-27T14:32:11.414Z,999.53
2022-11-27T14:37:54.445Z,999.56
2022-11-27T14:43:37.872Z,999.48
2022-11-27T14:49:22.573Z,999.45
2022-11-27T14:55:06.142Z,999.34
2022-11-27T15:00:56.744Z,999.16
2022-11-27T15:06:40.861Z,998.95
2022-11-27T15:12:24.441Z,998.82
2022-11-27T15:18:08.357Z,998.83
2022-11-27T15:23:51.979Z,998.62
2022-11-27T15:29:36.795Z,998.57
2022-11-27T15:35:21.695Z,998.5
2022-11-27T15:41:04.896Z,998.3
2022-11-27T15:46:48.023Z,998.25
2022-11-27T15:52:31.193Z,998.43
2022-11-27T15:58:14.625Z,998.32
2022-11-27T16:03:58.253Z,998.1
2022-11-27T16:09:41.343Z,998.1
2022-11-27T16:15:31.549Z,998.17
2022-11-27T16:21:16.699Z,998.03
2022-11-27T16:26:59.890Z,997.83
2022-11-27T16:32:42.833Z,997.69
2022-11-27T16:38:26.521Z,997.6
2022-11-27T16:44:11.336Z,997.63
2022-11-27T16:49:54.635Z,997.41
2022-11-27T16:55:37.726Z,997.42
2022-11-27T17:01:22.179Z,997.37
2022-11-27T17:07:05.349Z,997.43
2022-11-27T17:12:48.237Z,997.26
2022-11-27T17:18:31.217Z,997.21
2022-11-27T17:24:16.828Z,997.07
2022-11-27T17:29:59.690Z,996.91
2022-11-27T17:35:42.872Z,996.9
2022-11-27T17:41:25.812Z,996.78
2022-11-27T17:47:08.849Z,996.73
2022-11-27T17:52:52.700Z,996.79
2022-11-27T17:58:35.942Z,996.73
2022-11-27T18:04:19.930Z,996.76
2022-11-27T18:10:02.927Z,996.78
2022-11-27T18:15:46.169Z,996.74
2022-11-27T18:21:29.014Z,996.66
2022-11-27T18:27:11.927Z,996.68
2022-11-27T18:32:54.985Z,996.63
2022-11-27T18:38:38.730Z,996.52
2022-11-27T18:44:21.736Z,996.43
2022-11-27T18:50:05.548Z,996.31
2022-11-27T18:55:53.395Z,996.27
2022-11-27T19:01:42.919Z,996.22
2022-11-27T19:07:26.108Z,996.12
2022-11-27T19:13:09.252Z,996.03
2022-11-27T19:18:52.222Z,996.02
2022-11-27T19:24:35.356Z,995.95
2022-11-27T19:30:19.087Z,995.89
2022-11-27T19:36:04.775Z,995.75
2022-11-27T19:41:47.830Z,995.55
2022-11-27T19:47:30.794Z,995.57
2022-11-27T19:53:13.902Z,995.51
2022-11-27T19:58:57.449Z,995.33
2022-11-27T20:04:41.086Z,995.36
2022-11-27T20:10:24.856Z,995.29
2022-11-27T20:16:11.775Z,995.48
2022-11-27T20:21:55.003Z,995.39
2022-11-27T20:27:38.114Z,995.25
2022-11-27T20:33:21.026Z,995.23
2022-11-27T20:39:04.636Z,995.1
2022-11-27T20:44:48.993Z,995.06
2022-11-27T20:50:32.073Z,994.96
2022-11-27T20:56:16.215Z,994.96
2022-11-27T21:01:59.569Z,994.93
2022-11-27T21:07:43.876Z,995.01
2022-11-27T21:13:27.305Z,995.02
2022-11-27T21:19:14.100Z,994.92
2022-11-27T21:24:57.252Z,995.02
2022-11-27T21:30:46.660Z,994.89
2022-11-27T21:36:32.439Z,994.88
2022-11-27T21:42:15.538Z,994.73
2022-11-27T21:47:58.862Z,994.75
2022-11-27T21:53:42.025Z,994.84
2022-11-27T21:59:25.199Z,994.82
2022-11-27T22:05:09.019Z,994.74
2022-11-27T22:10:52.297Z,994.7
2022-11-27T22:16:45.098Z,994.7
2022-11-27T22:22:29.644Z,994.69
2022-11-27T22:28:12.815Z,994.65
2022-11-27T22:33:56.045Z,994.66
2022-11-27T22:39:39.260Z,994.63
2022-11-27T22:45:22.521Z,994.59
2022-11-27T22:51:05.738Z,994.52
2022-11-27T22:56:48.914Z,994.53
2022-11-27T23:02:32.075Z,994.43
2022-11-27T23:08:15.434Z,994.29
2022-11-27T23:13:58.646Z,994.34
2022-11-27T23:19:41.586Z,994.33
2022-11-27T23:25:24.619Z,994.4
2022-11-27T23:31:31.027Z,994.26
2022-11-27T23:37:12.393Z,994.26
2022-11-27T23:42:55.452Z,993.9
2022-11-27T23:48:38.672Z,994.04
2022-11-27T23:54:21.641Z,994
